• Join FlightAware (Why Join?)
  • Login
  • US Flag 
08:37PM EST


 

Airport Tracker/Info


-or-


 

Live Flight TrackerFlight Track Log ✈ LYM717 ✈ 23-Apr-2014 ✈ KDEN - KCBK

Flight Track Log - Related Links

Times and Time Zones

All times are in EDT time to prevent confusion due to time zone crossing. See the LYM717 flight status page for this flight to view local times or setup timezone preferences in your user account.

Time Position Orientation Groundspeed Altitude Reporting Facility
EDT Latitude Longitude Course Direction KTS MPH feet Rate Location/Type
08:34AM 39.8333 -104.6500 90° East 116 133 6,400  Level Denver TRACON
08:35AM 39.8333 -104.6000 90° East 135 155 7,100 720 Climbing Denver TRACON
08:36AM 39.8167 -104.5500 113° Southeast 134 154 7,800 540 Climbing Denver TRACON
08:37AM 39.8128 -104.5178 99° East 135 155 8,100 660 Climbing Denver Center
08:38AM 39.8031 -104.4678 104° East 140 161 8,900 420 Climbing Denver Center
08:39AM 39.7992 -104.4114 95° East 154 177 9,000 60 Climbing Denver Center
08:40AM 39.7931 -104.3461 97° East 179 206 9,100  Climbing Denver Center
08:41AM 39.7897 -104.2717 93° East 190 219 9,100  Level Denver Center
08:42AM 39.7850 -104.2011 95° East 194 223 9,100  Level Denver Center
08:43AM 39.7808 -104.1275 94° East 201 231 9,100  Level Denver Center
08:44AM 39.7775 -104.0575 94° East 199 229 9,100 -60 Level Denver Center
08:45AM 39.7722 -103.9872 96° East 198 228 9,000 -60 Descending Denver Center
08:46AM 39.7683 -103.9150 94° East 201 231 9,000  Level Denver Center
08:47AM 39.7611 -103.8392 97° East 201 231 9,100  Climbing Denver Center
08:48AM 39.7503 -103.7508 99° East 199 229 9,100 -60 Level Denver Center
08:49AM 39.7444 -103.6789 96° East 197 227 9,000 -60 Descending Denver Center
08:50AM 39.7367 -103.6053 98° East 200 230 9,000  Level Denver Center
08:51AM 39.7253 -103.5353 102° East 200 230 9,100  Climbing Denver Center
08:52AM 39.7175 -103.4628 98° East 200 230 9,100  Level Denver Center
08:53AM 39.7028 -103.3900 105° East 206 237 9,100 -60 Level Denver Center
08:54AM 39.6894 -103.3178 103° East 206 237 9,000  Descending Denver Center
08:55AM 39.6742 -103.2464 106° East 206 237 9,100  Climbing Denver Center
08:56AM 39.6608 -103.1781 104° East 203 234 9,100 -60 Level Denver Center
08:57AM 39.6436 -103.1119 109° East 199 229 9,000 -60 Descending Denver Center
08:58AM 39.6286 -103.0447 106° East 196 226 9,000  Level Denver Center
08:59AM 39.6189 -102.9719 100° East 198 228 9,100  Climbing Denver Center
09:00AM 39.6144 -102.8969 94° East 203 234 9,100  Level Denver Center
09:01AM 39.6050 -102.8097 98° East 204 235 9,100 -60 Level Denver Center
09:02AM 39.5942 -102.7350 101° East 204 235 9,000 -60 Descending Denver Center
09:03AM 39.5817 -102.6625 103° East 205 236 9,000  Level Denver Center
09:04AM 39.5633 -102.5942 109° East 204 235 9,000  Level Denver Center
09:05AM 39.5369 -102.5347 120° Southeast 204 235 9,000  Level Denver Center
09:09AM 39.4897 -102.2736 102° East 193 222 9,000  Level Denver Center
09:10AM 39.4789 -102.2083 102° East 193 222 9,000  Level Denver Center
09:11AM 39.4675 -102.1464 103° East 192 221 9,000  Level Denver Center
09:12AM 39.4542 -102.0708 103° East 192 221 9,000  Level Denver Center
09:13AM 39.4442 -102.0053 101° East 192 221 9,000  Level Denver Center
09:14AM 39.4265 -101.9468 102° East  Level FlightAware Approximate
09:14AM 39.4347 -101.9397 101° East 192 221 9,100  Level Denver Center
09:15AM 39.4206 -101.8619 103° East 192 221 9,000 -60 Descending Denver Center
09:16AM 39.4064 -101.7983 106° East 193 222 9,000  Level Denver Center
09:17AM 39.3911 -101.7222 105° East 193 222 9,000  Level Denver Center
09:18AM 39.3819 -101.6572 100° East 193 222 9,000  Level Denver Center
09:19AM 39.3931 -101.5911 78° East 197 227 9,000 -300 Level Denver Center
09:20AM 39.4031 -101.5044 81° East 211 243 8,400 -600 Descending Denver Center
09:21AM 39.4094 -101.4256 84° East 223 257 7,800 -600 Descending Denver Center